createdAt,value
2019-04-27T00:02:26.574Z,11.12
2019-04-27T00:05:03.975Z,11.08
2019-04-27T00:07:40.489Z,11.06
2019-04-27T00:10:33.522Z,11.06
2019-04-27T00:13:05.733Z,11.08
2019-04-27T00:15:47.200Z,11.09
2019-04-27T00:18:26.824Z,11.05
2019-04-27T00:21:06.848Z,11.01
2019-04-27T00:23:36.511Z,10.96
2019-04-27T00:26:06.363Z,10.94
2019-04-27T00:28:36.631Z,10.96
2019-04-27T00:31:06.449Z,11.03
2019-04-27T00:33:36.111Z,11.08
2019-04-27T00:36:13.646Z,11.06
2019-04-27T00:38:54.934Z,11.02
2019-04-27T00:41:24.683Z,11.03
2019-04-27T00:43:54.428Z,11.04
2019-04-27T00:46:24.133Z,11.05
2019-04-27T00:48:53.813Z,11.02
2019-04-27T00:51:23.572Z,10.97
2019-04-27T00:53:54.967Z,10.97
2019-04-27T00:56:35.080Z,10.95
2019-04-27T00:59:23.973Z,10.96
2019-04-27T01:02:05.737Z,11.01
2019-04-27T01:04:35.486Z,11.02
2019-04-27T01:07:05.231Z,11.04
2019-04-27T01:09:35.442Z,11.00
2019-04-27T01:12:05.374Z,11.03
2019-04-27T01:14:35.188Z,11.06
2019-04-27T01:17:04.881Z,11.10
2019-04-27T01:19:34.581Z,11.11
2019-04-27T01:22:04.324Z,11.10
2019-04-27T01:24:34.002Z,11.05
2019-04-27T01:27:24.968Z,11.06
2019-04-27T01:29:55.665Z,11.03
2019-04-27T01:32:25.347Z,11.01
2019-04-27T01:34:55.086Z,11.03
2019-04-27T01:37:24.764Z,11.08
2019-04-27T01:39:54.433Z,11.11
2019-04-27T01:42:24.131Z,11.09
2019-04-27T01:44:53.802Z,11.11
2019-04-27T01:47:23.478Z,11.10
2019-04-27T01:49:53.150Z,11.06
2019-04-27T01:52:22.822Z,11.03
2019-04-27T01:54:52.493Z,11.01
2019-04-27T01:57:22.166Z,10.98
2019-04-27T01:59:51.827Z,10.99
2019-04-27T02:02:34.483Z,10.98
2019-04-27T02:05:22.920Z,11.00
2019-04-27T02:07:52.602Z,11.03
2019-04-27T02:10:22.259Z,11.05
2019-04-27T02:12:52.034Z,11.05
2019-04-27T02:15:21.847Z,11.07
2019-04-27T02:17:51.606Z,11.08
2019-04-27T02:20:21.340Z,11.10
2019-04-27T02:22:51.022Z,11.09
2019-04-27T02:25:21.190Z,11.12
2019-04-27T02:27:59.170Z,11.12
2019-04-27T02:31:21.842Z,11.10
2019-04-27T02:33:59.592Z,11.09
2019-04-27T02:36:30.515Z,11.08
2019-04-27T02:39:00.403Z,11.05
2019-04-27T02:41:31.767Z,11.07
2019-04-27T02:44:20.508Z,11.07
2019-04-27T02:46:50.502Z,11.09
2019-04-27T02:49:20.353Z,11.10
2019-04-27T02:51:56.541Z,11.10
2019-04-27T02:54:26.221Z,11.08
2019-04-27T02:56:55.889Z,11.08
2019-04-27T02:59:25.555Z,11.08
2019-04-27T03:02:06.987Z,11.09
2019-04-27T03:04:39.653Z,11.03
2019-04-27T03:07:08.019Z,11.03
2019-04-27T03:09:39.540Z,11.00
2019-04-27T03:12:10.175Z,11.00
2019-04-27T03:14:50.566Z,11.03
2019-04-27T03:17:42.557Z,11.03
2019-04-27T03:23:04.041Z,11.02
2019-04-27T03:26:00.318Z,10.99
2019-04-27T03:28:30.171Z,11.00
2019-04-27T03:31:02.625Z,11.01
2019-04-27T03:33:32.759Z,11.01
2019-04-27T03:36:03.314Z,11.00
2019-04-27T03:38:33.096Z,11.00
2019-04-27T03:41:02.857Z,10.99
2019-04-27T03:43:32.631Z,11.01
2019-04-27T03:46:02.509Z,11.00
2019-04-27T03:48:32.214Z,10.98
2019-04-27T03:51:19.716Z,10.98
2019-04-27T03:54:06.705Z,10.99
2019-04-27T03:56:50.799Z,10.96
2019-04-27T03:59:40.530Z,10.92
2019-04-27T04:02:10.263Z,10.93
2019-04-27T04:04:40.692Z,10.93
2019-04-27T04:07:15.704Z,10.92
2019-04-27T04:09:45.530Z,10.92
2019-04-27T04:12:21.914Z,10.96
2019-04-27T04:14:51.585Z,10.99
2019-04-27T04:17:22.182Z,10.96
2019-04-27T04:19:57.573Z,10.99
2019-04-27T04:22:23.305Z,11.02
2019-04-27T04:24:52.996Z,11.03
2019-04-27T04:27:22.673Z,11.04
2019-04-27T04:29:53.325Z,11.08
2019-04-27T04:32:23.011Z,11.10
2019-04-27T04:34:52.761Z,11.12
2019-04-27T04:37:22.427Z,11.13
2019-04-27T04:39:53.487Z,11.16
2019-04-27T04:42:41.549Z,11.17
2019-04-27T04:45:25.726Z,11.15
2019-04-27T04:47:59.616Z,11.19
2019-04-27T04:50:30.382Z,11.26
2019-04-27T04:53:00.345Z,11.32
2019-04-27T04:55:30.752Z,11.35
2019-04-27T04:58:00.653Z,11.41
2019-04-27T05:00:30.332Z,11.46
2019-04-27T05:03:00.001Z,11.52
2019-04-27T05:05:29.681Z,11.65
2019-04-27T05:08:00.713Z,11.80
2019-04-27T05:10:31.686Z,11.90
2019-04-27T05:13:01.350Z,12.05
2019-04-27T05:15:31.024Z,12.23
2019-04-27T05:18:00.684Z,12.42
2019-04-27T05:20:49.393Z,12.64
2019-04-27T05:23:19.068Z,12.80
2019-04-27T05:25:49.370Z,12.90
2019-04-27T05:28:19.168Z,12.92
2019-04-27T05:30:49.103Z,12.84
2019-04-27T05:33:18.960Z,12.75
2019-04-27T05:35:49.718Z,12.77
2019-04-27T05:38:19.533Z,12.86
2019-04-27T05:40:49.921Z,12.98
2019-04-27T05:43:25.570Z,13.06
2019-04-27T05:46:36.770Z,13.11
2019-04-27T05:49:09.558Z,13.19
2019-04-27T05:51:41.772Z,13.34
2019-04-27T05:54:10.773Z,13.40
2019-04-27T05:56:40.464Z,13.42
2019-04-27T05:59:10.129Z,13.30
2019-04-27T06:01:39.817Z,13.19
2019-04-27T06:04:09.565Z,13.20
2019-04-27T06:06:39.868Z,13.15
2019-04-27T06:09:09.798Z,13.17
2019-04-27T06:11:40.104Z,13.14
2019-04-27T06:14:10.792Z,13.06
2019-04-27T06:16:40.760Z,13.07
2019-04-27T06:19:10.420Z,13.24
2019-04-27T06:21:40.330Z,13.59
2019-04-27T06:24:10.066Z,14.21
2019-04-27T06:26:40.074Z,15.38
2019-04-27T06:29:11.088Z,16.61
2019-04-27T06:31:40.759Z,17.92
2019-04-27T06:34:10.431Z,19.12
2019-04-27T06:36:40.145Z,20.03
2019-04-27T06:39:10.017Z,20.45
2019-04-27T06:41:40.111Z,21.10
2019-04-27T06:44:11.373Z,21.52
2019-04-27T06:46:41.413Z,21.59
2019-04-27T06:49:11.375Z,21.68
2019-04-27T06:51:41.246Z,21.68
2019-04-27T06:54:10.936Z,22.01
2019-04-27T06:56:40.608Z,22.44
2019-04-27T06:59:10.295Z,22.73
2019-04-27T07:01:39.972Z,22.62
2019-04-27T07:04:10.892Z,22.21
2019-04-27T07:06:52.944Z,21.80
2019-04-27T07:09:12.596Z,21.53
2019-04-27T07:11:42.277Z,21.46
2019-04-27T07:14:11.964Z,21.75
2019-04-27T07:16:41.642Z,22.54
2019-04-27T07:19:11.337Z,23.09
2019-04-27T07:21:41.007Z,23.55
2019-04-27T07:24:10.764Z,23.33
2019-04-27T07:26:40.448Z,23.65
2019-04-27T07:29:10.137Z,23.50
2019-04-27T07:31:40.884Z,23.38
2019-04-27T07:34:10.654Z,23.56
2019-04-27T07:36:40.322Z,23.83
2019-04-27T07:39:11.534Z,24.39
2019-04-27T07:41:41.321Z,25.25
2019-04-27T07:44:16.322Z,25.79
2019-04-27T07:47:05.018Z,25.99
2019-04-27T07:49:34.712Z,25.88
2019-04-27T07:52:04.486Z,25.67
2019-04-27T07:54:34.158Z,25.63
2019-04-27T07:57:03.916Z,26.15
2019-04-27T07:59:33.751Z,26.81
2019-04-27T08:02:03.535Z,26.84
2019-04-27T08:04:33.305Z,27.22
2019-04-27T08:07:02.978Z,27.41
2019-04-27T08:09:32.676Z,27.57
2019-04-27T08:12:02.382Z,27.54
2019-04-27T08:14:32.118Z,27.16
2019-04-27T08:17:01.866Z,27.27
2019-04-27T08:19:31.550Z,27.54
2019-04-27T08:22:01.651Z,27.42
2019-04-27T08:24:31.655Z,27.32
2019-04-27T08:27:19.467Z,27.23
2019-04-27T08:30:09.487Z,26.90
2019-04-27T08:32:42.091Z,26.49
2019-04-27T08:35:12.821Z,25.69
2019-04-27T08:37:42.543Z,25.03
2019-04-27T08:40:12.880Z,24.89
2019-04-27T08:42:42.719Z,25.68
2019-04-27T08:45:13.305Z,25.99
2019-04-27T08:47:42.999Z,26.08
2019-04-27T08:50:13.033Z,25.45
2019-04-27T08:52:42.702Z,24.65
2019-04-27T08:55:12.839Z,24.46
2019-04-27T08:57:42.511Z,24.24
2019-04-27T09:00:12.542Z,24.39
2019-04-27T09:02:46.941Z,24.52
2019-04-27T09:05:13.652Z,25.18
2019-04-27T09:07:53.305Z,25.55
2019-04-27T09:10:31.932Z,25.44
2019-04-27T09:13:14.328Z,25.69
2019-04-27T09:16:00.132Z,26.73
2019-04-27T09:18:32.567Z,27.45
2019-04-27T09:21:03.199Z,27.60
2019-04-27T09:23:32.892Z,27.41
2019-04-27T09:26:02.593Z,27.30
2019-04-27T09:28:32.282Z,27.70
2019-04-27T09:31:01.968Z,27.74
2019-04-27T09:33:31.629Z,27.02
2019-04-27T09:36:01.373Z,27.43
2019-04-27T09:38:31.029Z,28.07
2019-04-27T09:41:00.709Z,28.98
2019-04-27T09:43:30.370Z,29.58
2019-04-27T09:46:00.057Z,29.86
2019-04-27T09:48:29.712Z,29.61
2019-04-27T09:50:59.461Z,28.63
2019-04-27T09:53:29.117Z,27.92
2019-04-27T09:55:59.860Z,27.75
2019-04-27T09:58:29.512Z,27.69
2019-04-27T10:00:59.347Z,27.66
2019-04-27T10:03:29.003Z,27.17
2019-04-27T10:05:58.731Z,27.70
2019-04-27T10:08:28.521Z,28.12
2019-04-27T10:10:58.195Z,28.55
2019-04-27T10:13:27.891Z,28.53
2019-04-27T10:15:57.541Z,28.27
2019-04-27T10:18:27.202Z,27.65
2019-04-27T10:21:01.734Z,27.33
2019-04-27T10:23:28.237Z,27.02
2019-04-27T10:25:57.894Z,26.94
2019-04-27T10:28:27.653Z,27.08
2019-04-27T10:30:57.321Z,27.34
2019-04-27T10:33:28.051Z,27.70
2019-04-27T10:35:57.710Z,27.18
2019-04-27T10:38:27.416Z,26.93
2019-04-27T10:40:57.219Z,26.08
2019-04-27T10:43:26.882Z,26.12
2019-04-27T10:45:56.624Z,26.19
2019-04-27T10:48:26.628Z,26.13
2019-04-27T10:50:56.393Z,25.54
2019-04-27T10:53:26.889Z,25.75
2019-04-27T10:55:56.746Z,25.79
2019-04-27T10:58:27.425Z,25.95
2019-04-27T11:00:59.049Z,25.74
2019-04-27T11:03:46.407Z,27.02
2019-04-27T11:06:38.641Z,27.32
2019-04-27T11:09:10.282Z,25.63
2019-04-27T11:11:41.654Z,26.11
2019-04-27T11:14:11.747Z,25.18
2019-04-27T11:16:41.490Z,25.14
2019-04-27T11:19:11.268Z,26.05
2019-04-27T11:21:40.966Z,26.17
2019-04-27T11:24:10.637Z,26.30
2019-04-27T11:26:40.458Z,26.92
2019-04-27T11:29:10.218Z,27.70
2019-04-27T11:31:39.944Z,27.41
2019-04-27T11:34:09.614Z,26.38
2019-04-27T11:36:57.193Z,25.92
2019-04-27T11:39:27.734Z,25.36
2019-04-27T11:41:57.376Z,23.83
2019-04-27T11:44:27.055Z,23.00
2019-04-27T11:46:56.708Z,23.92
2019-04-27T11:49:26.378Z,25.47
2019-04-27T11:51:56.738Z,26.72
2019-04-27T11:54:27.571Z,27.23
2019-04-27T11:56:57.438Z,27.33
2019-04-27T11:59:27.206Z,27.88
2019-04-27T12:01:56.837Z,28.35
2019-04-27T12:04:26.532Z,26.40
2019-04-27T12:06:56.560Z,25.73
2019-04-27T12:09:26.466Z,25.91
2019-04-27T12:12:06.764Z,26.07
2019-04-27T12:14:27.478Z,25.36
2019-04-27T12:16:57.126Z,25.02
2019-04-27T12:19:26.987Z,23.54
2019-04-27T12:21:56.828Z,22.18
2019-04-27T12:24:26.830Z,21.28
2019-04-27T12:27:15.980Z,20.81
2019-04-27T12:30:03.433Z,20.31
2019-04-27T12:32:35.914Z,20.02
2019-04-27T12:35:06.703Z,19.88
2019-04-27T12:37:36.688Z,19.73
2019-04-27T12:40:06.954Z,19.63
2019-04-27T12:42:36.701Z,19.60
2019-04-27T12:45:06.939Z,19.71
2019-04-27T12:47:38.122Z,19.95
2019-04-27T12:50:09.907Z,20.08
2019-04-27T12:52:40.342Z,20.31
2019-04-27T12:55:18.027Z,20.24
2019-04-27T12:58:04.021Z,20.24
2019-04-27T13:00:37.554Z,19.69
2019-04-27T13:03:07.242Z,19.33
2019-04-27T13:05:36.922Z,19.25
2019-04-27T13:08:06.596Z,19.13
2019-04-27T13:10:37.425Z,19.07
2019-04-27T13:13:08.064Z,19.05
2019-04-27T13:15:37.763Z,19.04
2019-04-27T13:18:07.498Z,19.03
2019-04-27T13:20:37.188Z,19.20
2019-04-27T13:23:07.373Z,19.45
2019-04-27T13:25:38.512Z,19.68
2019-04-27T13:28:08.342Z,19.88
2019-04-27T13:30:38.027Z,20.07
2019-04-27T13:33:07.702Z,20.21
2019-04-27T13:35:37.400Z,20.21
2019-04-27T13:38:07.092Z,20.24
2019-04-27T13:40:39.527Z,20.26
2019-04-27T13:43:17.732Z,20.21
2019-04-27T13:45:55.044Z,20.14
2019-04-27T13:48:42.233Z,20.27
2019-04-27T13:51:14.451Z,20.33
2019-04-27T13:53:45.607Z,20.16
2019-04-27T13:56:17.278Z,19.71
2019-04-27T13:58:46.964Z,18.89
2019-04-27T14:01:16.789Z,18.13
2019-04-27T14:03:46.416Z,17.64
2019-04-27T14:06:16.124Z,17.36
2019-04-27T14:08:45.806Z,17.13
2019-04-27T14:11:18.388Z,17.02
2019-04-27T14:13:49.149Z,16.72
2019-04-27T14:16:19.064Z,16.76
2019-04-27T14:18:48.799Z,17.11
2019-04-27T14:21:18.553Z,17.55
2019-04-27T14:23:48.509Z,17.87
2019-04-27T14:26:18.520Z,18.40
2019-04-27T14:28:50.011Z,19.03
2019-04-27T14:31:19.878Z,19.45
2019-04-27T14:33:49.587Z,19.70
2019-04-27T14:36:19.274Z,19.73
2019-04-27T14:38:50.053Z,19.61
2019-04-27T14:41:20.033Z,19.50
2019-04-27T14:44:04.950Z,19.35
2019-04-27T14:46:21.186Z,19.11
2019-04-27T14:48:50.846Z,19.04
2019-04-27T14:51:20.523Z,18.87
2019-04-27T14:53:50.266Z,18.75
2019-04-27T14:56:20.209Z,18.69
2019-04-27T14:58:50.054Z,18.63
2019-04-27T15:01:20.545Z,18.70
2019-04-27T15:03:50.316Z,18.63
2019-04-27T15:06:22.050Z,18.56
2019-04-27T15:08:51.808Z,18.39
2019-04-27T15:11:21.480Z,18.24
2019-04-27T15:13:53.285Z,18.15
2019-04-27T15:16:23.658Z,18.07
2019-04-27T15:18:57.705Z,18.02
2019-04-27T15:21:27.461Z,17.98
2019-04-27T15:23:57.199Z,18.09
2019-04-27T15:26:26.880Z,18.15
2019-04-27T15:28:59.009Z,17.89
2019-04-27T15:31:40.807Z,17.52
2019-04-27T15:34:29.121Z,17.24
2019-04-27T15:37:23.675Z,17.05
2019-04-27T15:40:15.466Z,16.88
2019-04-27T15:43:00.515Z,16.70
2019-04-27T15:45:30.175Z,16.52
2019-04-27T15:47:59.931Z,16.20
2019-04-27T15:50:32.220Z,15.98
2019-04-27T15:53:05.384Z,15.69
2019-04-27T15:55:36.849Z,15.40
2019-04-27T15:58:04.027Z,15.17
2019-04-27T16:00:33.924Z,15.03
2019-04-27T16:03:03.615Z,14.95
2019-04-27T16:05:36.094Z,14.73
2019-04-27T16:08:12.482Z,14.49
2019-04-27T16:10:40.067Z,14.15
2019-04-27T16:13:13.431Z,13.93
2019-04-27T16:15:39.995Z,13.66
2019-04-27T16:18:09.663Z,13.38
2019-04-27T16:20:39.401Z,13.24
2019-04-27T16:23:09.159Z,13.12
2019-04-27T16:25:48.421Z,13.01
2019-04-27T16:28:13.357Z,12.87
2019-04-27T16:30:45.598Z,12.77
2019-04-27T16:33:15.438Z,12.71
2019-04-27T16:35:45.576Z,12.63
2019-04-27T16:38:33.612Z,12.46
2019-04-27T16:41:03.310Z,12.17
2019-04-27T16:43:33.059Z,11.96
2019-04-27T16:46:04.656Z,11.83
2019-04-27T16:48:36.241Z,11.64
2019-04-27T16:51:06.013Z,11.54
2019-04-27T16:53:39.426Z,11.61
2019-04-27T16:56:14.548Z,11.76
2019-04-27T16:58:39.672Z,11.81
2019-04-27T17:01:23.986Z,11.90
2019-04-27T17:03:54.646Z,11.91
2019-04-27T17:06:24.442Z,11.82
2019-04-27T17:08:57.313Z,11.71
2019-04-27T17:11:25.573Z,11.59
2019-04-27T17:14:05.632Z,11.65
2019-04-27T17:16:58.138Z,11.73
2019-04-27T17:19:35.776Z,11.86
2019-04-27T17:22:05.187Z,11.94
2019-04-27T17:24:45.269Z,11.93
2019-04-27T17:27:11.125Z,11.87
2019-04-27T17:29:41.181Z,11.92
2019-04-27T17:32:42.489Z,11.95
2019-04-27T17:35:14.864Z,11.96
2019-04-27T17:37:43.669Z,12.05
2019-04-27T17:40:15.387Z,12.10
2019-04-27T17:42:45.050Z,12.09
2019-04-27T17:45:15.065Z,12.12
2019-04-27T17:47:44.721Z,12.18
2019-04-27T17:50:18.463Z,12.26
2019-04-27T17:52:48.427Z,12.31
2019-04-27T17:55:24.101Z,12.33
2019-04-27T17:57:49.214Z,12.38
2019-04-27T18:00:19.581Z,12.29
2019-04-27T18:02:49.235Z,12.29
2019-04-27T18:05:18.913Z,12.32
2019-04-27T18:07:48.759Z,12.26
2019-04-27T18:10:23.824Z,12.25
2019-04-27T18:12:50.917Z,12.19
2019-04-27T18:15:20.669Z,12.17
2019-04-27T18:17:52.491Z,12.20
2019-04-27T18:20:24.538Z,12.22
2019-04-27T18:23:00.309Z,12.26
2019-04-27T18:25:35.703Z,12.26
2019-04-27T18:28:15.138Z,12.24
2019-04-27T18:31:01.474Z,12.25
2019-04-27T18:33:32.704Z,12.19
2019-04-27T18:36:05.479Z,12.16
2019-04-27T18:38:35.443Z,12.15
2019-04-27T18:41:07.990Z,12.15
2019-04-27T18:43:38.878Z,12.15
2019-04-27T18:46:09.103Z,12.15
2019-04-27T18:48:58.449Z,12.13
2019-04-27T18:52:04.343Z,12.10
2019-04-27T18:54:38.210Z,12.07
2019-04-27T18:57:06.078Z,12.02
2019-04-27T18:59:35.727Z,11.99
2019-04-27T19:02:05.474Z,11.94
2019-04-27T19:04:35.133Z,11.89
2019-04-27T19:07:04.900Z,11.84
2019-04-27T19:09:34.543Z,11.83
2019-04-27T19:12:04.304Z,11.82
2019-04-27T19:14:34.010Z,11.83
2019-04-27T19:17:03.777Z,11.77
2019-04-27T19:19:33.499Z,11.76
2019-04-27T19:22:03.170Z,11.71
2019-04-27T19:24:32.874Z,11.74
2019-04-27T19:27:18.024Z,11.78
2019-04-27T19:29:50.629Z,11.75
2019-04-27T19:32:20.307Z,11.78
2019-04-27T19:34:49.977Z,11.79
2019-04-27T19:37:19.847Z,11.81
2019-04-27T19:39:49.820Z,11.82
2019-04-27T19:42:20.232Z,11.85
2019-04-27T19:44:50.331Z,11.82
2019-04-27T19:47:20.017Z,11.79
2019-04-27T19:49:49.709Z,11.76
2019-04-27T19:52:22.493Z,11.77
2019-04-27T19:54:50.840Z,11.77
2019-04-27T19:57:31.876Z,11.79
2019-04-27T19:59:55.363Z,11.81
2019-04-27T20:02:25.043Z,11.83
2019-04-27T20:05:01.123Z,11.78
2019-04-27T20:07:32.661Z,11.77
2019-04-27T20:10:04.184Z,11.80
2019-04-27T20:12:34.025Z,11.83
2019-04-27T20:15:04.042Z,11.68
2019-04-27T20:17:34.354Z,11.51
2019-04-27T20:20:05.648Z,11.36
2019-04-27T20:22:35.358Z,11.21
2019-04-27T20:25:05.853Z,11.13
2019-04-27T20:27:45.985Z,11.07
2019-04-27T20:30:08.668Z,10.96
2019-04-27T20:32:38.816Z,10.87
2019-04-27T20:35:08.945Z,10.86
2019-04-27T20:37:38.680Z,10.84
2019-04-27T20:40:11.183Z,10.85
2019-04-27T20:42:41.524Z,10.81
2019-04-27T20:45:12.643Z,10.74
2019-04-27T20:47:42.326Z,10.69
2019-04-27T20:50:12.073Z,10.66
2019-04-27T20:53:00.763Z,10.57
2019-04-27T20:55:32.223Z,10.51
2019-04-27T20:58:02.589Z,10.41
2019-04-27T21:00:32.752Z,10.33
2019-04-27T21:03:07.161Z,10.24
2019-04-27T21:06:01.541Z,10.19
2019-04-27T21:08:33.728Z,10.15
2019-04-27T21:11:03.414Z,10.13
2019-04-27T21:13:33.078Z,10.08
2019-04-27T21:16:02.764Z,10.05
2019-04-27T21:18:32.446Z,10.07
2019-04-27T21:21:02.173Z,10.01
2019-04-27T21:23:31.856Z,9.98
2019-04-27T21:26:02.066Z,9.93
2019-04-27T21:28:32.456Z,9.85
2019-04-27T21:31:02.162Z,9.79
2019-04-27T21:33:31.918Z,9.77
2019-04-27T21:36:01.587Z,9.72
2019-04-27T21:38:31.248Z,9.69
2019-04-27T21:41:00.907Z,9.69
2019-04-27T21:43:32.253Z,9.66
2019-04-27T21:46:01.982Z,9.65
2019-04-27T21:48:31.635Z,9.62
2019-04-27T21:51:01.570Z,9.63
2019-04-27T21:53:38.339Z,9.62
2019-04-27T21:56:11.143Z,9.62
2019-04-27T21:58:42.060Z,9.61
2019-04-27T22:01:24.808Z,9.65
2019-04-27T22:03:54.832Z,9.65
2019-04-27T22:06:24.743Z,9.61
2019-04-27T22:08:55.824Z,9.61
2019-04-27T22:11:25.539Z,9.61
2019-04-27T22:13:55.446Z,9.62
2019-04-27T22:16:25.298Z,9.63
2019-04-27T22:18:54.952Z,9.68
2019-04-27T22:21:24.614Z,9.69
2019-04-27T22:24:08.938Z,9.67
2019-04-27T22:26:38.607Z,9.64
2019-04-27T22:29:08.273Z,9.59
2019-04-27T22:31:38.011Z,9.56
2019-04-27T22:34:07.743Z,9.55
2019-04-27T22:36:37.404Z,9.57
2019-04-27T22:39:25.322Z,9.57
2019-04-27T22:42:02.420Z,9.57
2019-04-27T22:44:41.493Z,9.59
2019-04-27T22:47:12.932Z,9.61
2019-04-27T22:49:42.658Z,9.63
2019-04-27T22:52:12.315Z,9.66
2019-04-27T22:54:42.235Z,9.61
2019-04-27T22:57:18.504Z,9.53
2019-04-27T22:59:58.329Z,9.47
2019-04-27T23:02:42.030Z,9.48
2019-04-27T23:05:11.865Z,9.46
2019-04-27T23:07:41.585Z,9.45
2019-04-27T23:10:11.364Z,9.45
2019-04-27T23:12:42.017Z,9.48
2019-04-27T23:15:16.273Z,9.46
2019-04-27T23:17:52.867Z,9.48
2019-04-27T23:20:22.799Z,9.53
2019-04-27T23:22:52.529Z,9.52
2019-04-27T23:25:22.187Z,9.49
2019-04-27T23:27:51.852Z,9.48
2019-04-27T23:30:24.850Z,9.46
2019-04-27T23:32:54.633Z,9.46
2019-04-27T23:35:24.297Z,9.41
2019-04-27T23:37:54.034Z,9.37
2019-04-27T23:40:23.684Z,9.38
2019-04-27T23:42:53.446Z,9.39
2019-04-27T23:45:23.105Z,9.43
2019-04-27T23:47:52.792Z,9.47
2019-04-27T23:50:22.918Z,9.47
2019-04-27T23:53:23.474Z,9.51
2019-04-27T23:55:53.135Z,9.54
2019-04-27T23:58:22.789Z,9.55
